Language: 


Des rapports , des résumés tant et plus, au choix de chacun....


Données statistiques de la station
Quotidien Rapport Janvier 21, 2018 Unités:  les deux    Anglais   Métrique
« Précédent Jour
Suivant Jour »
Quotidien Hebdomadaire Mensuel Annuel Actuel
  Haut: Bas: Moyen:
Température: TemperatureC °F /  -17.8 °C 1.2 °F /  -17.1 °C 2.8 °F /  -16.2 °C
Pt de rosée: DewpointC °F /  -17.8 °C 1.0 °F /  -17.2 °C 2.9 °F /  -16.2 °C
Humidité: Humidity % 94 % 98 %
Vitesse du vent: WindSpeedKMH mph /  0 km/h - 5.6 mph /  9 km/h
Rafales: WindSpeedGustKMH mph /  0 km/h - -
Vent:- - SSW
Pression: PressurehPa in /  0 hPa 1006.0 in /  34063.2 hPa -
Précipitation: 15.0 in /  381 mm    
Historical Graphs
 
 
Données statistiques pour Janvier 21, 2018
Heure Température Point de rosée Pression Vent Vitesse du vent Refales Humidité Pluie (taux horaire)
TemperatureC °F /  -17.8 °C DewpointC °F /  -17.8 °C PressurehPa in /  0 hPa Calm     Humidity % HourlyPrecipMM in /  0 mm
00:03 3.3 °F /  -15.9 °C 3.0 °F /  -16.1 °C 1006.0 in /  34063.2 hPa Calm     98 % 0.0 in /  0 mm
00:08 3.3 °F /  -15.9 °C 3.0 °F /  -16.1 °C 1006.0 in /  34063.2 hPa Calm   2.1 mph /  3.4 km/h 98 % 0.0 in /  0 mm
00:13 3.3 °F /  -15.9 °C 3.0 °F /  -16.1 °C 1006.0 in /  34063.2 hPa Calm   2.1 mph /  3.4 km/h 98 % 0.0 in /  0 mm
00:18 3.3 °F /  -15.9 °C 3.0 °F /  -16.1 °C 1007.0 in /  34097 hPa Calm     98 % 0.0 in /  0 mm
00:23 3.3 °F /  -15.9 °C 3.0 °F /  -16.1 °C 1007.0 in /  34097 hPa Calm   2.1 mph /  3.4 km/h 98 % 0.0 in /  0 mm
00:28 3.3 °F /  -15.9 °C 3.0 °F /  -16.1 °C 1007.0 in /  34097 hPa Calm   2.1 mph /  3.4 km/h 98 % 0.0 in /  0 mm
00:33 3.4 °F /  -15.9 °C 3.0 °F /  -16.1 °C 1007.0 in /  34097 hPa Calm     98 % 0.0 in /  0 mm
00:38 3.4 °F /  -15.9 °C 3.0 °F /  -16.1 °C 1007.0 in /  34097 hPa NW 4.3 mph /  6.9 km/h 4.3 mph /  6.9 km/h 98 % 0.0 in /  0 mm
00:43 3.4 °F /  -15.9 °C 3.0 °F /  -16.1 °C 1007.0 in /  34097 hPa West 1.8 mph /  2.9 km/h 4.3 mph /  6.9 km/h 98 % 0.0 in /  0 mm
00:48 3.5 °F /  -15.8 °C 4.0 °F /  -15.6 °C 1006.0 in /  34063.2 hPa WNW 2.6 mph /  4.2 km/h 5.8 mph /  9.3 km/h 98 % 0.0 in /  0 mm
00:53 3.6 °F /  -15.8 °C 4.0 °F /  -15.6 °C 1006.0 in /  34063.2 hPa NNW 5.0 mph /  8 km/h 5.8 mph /  9.3 km/h 98 % 0.0 in /  0 mm
00:58 3.7 °F /  -15.7 °C 4.0 °F /  -15.6 °C 1006.0 in /  34063.2 hPa Calm   5.0 mph /  8 km/h 98 % 0.0 in /  0 mm
01:03 3.8 °F /  -15.7 °C 4.0 °F /  -15.6 °C 1008.0 in /  34130.9 hPa North 6.4 mph /  10.3 km/h 8.7 mph /  14 km/h 98 % 0.3 in /  7.62 mm
01:08 3.8 °F /  -15.7 °C 4.0 °F /  -15.6 °C 1008.0 in /  34130.9 hPa WNW 2.6 mph /  4.2 km/h 8.7 mph /  14 km/h 98 % 0.3 in /  7.62 mm
01:13 3.8 °F /  -15.7 °C 4.0 °F /  -15.6 °C 1008.0 in /  34130.9 hPa Calm   6.4 mph /  10.3 km/h 98 % 0.3 in /  7.62 mm
01:18 3.8 °F /  -15.7 °C 4.0 °F /  -15.6 °C 1008.0 in /  34130.9 hPa Calm   6.1 mph /  9.8 km/h 98 % 0.3 in /  7.62 mm
01:23 3.9 °F /  -15.6 °C 4.0 °F /  -15.6 °C 1008.0 in /  34130.9 hPa Calm   4.0 mph /  6.4 km/h 98 % 0.3 in /  7.62 mm
01:28 3.8 °F /  -15.7 °C 4.0 °F /  -15.6 °C 1008.0 in /  34130.9 hPa West 1.4 mph /  2.3 km/h 1.8 mph /  2.9 km/h 98 % 0.3 in /  7.62 mm
01:33 3.8 °F /  -15.7 °C 4.0 °F /  -15.6 °C 1009.0 in /  34164.7 hPa Calm   2.6 mph /  4.2 km/h 98 % 0.3 in /  7.62 mm
01:38 3.8 °F /  -15.7 °C 4.0 °F /  -15.6 °C 1009.0 in /  34164.7 hPa Calm   2.6 mph /  4.2 km/h 98 % 0.3 in /  7.62 mm
01:43 3.8 °F /  -15.7 °C 4.0 °F /  -15.6 °C 1009.0 in /  34164.7 hPa NW 2.1 mph /  3.4 km/h 5.0 mph /  8 km/h 98 % 0.3 in /  7.62 mm
01:48 3.7 °F /  -15.7 °C 4.0 °F /  -15.6 °C 1009.0 in /  34164.7 hPa Calm   5.5 mph /  8.9 km/h 98 % 0.3 in /  7.62 mm
01:53 3.6 °F /  -15.8 °C 4.0 °F /  -15.6 °C 1009.0 in /  34164.7 hPa NW 1.8 mph /  2.9 km/h 6.9 mph /  11.1 km/h 98 % 0.3 in /  7.62 mm
01:58 3.6 °F /  -15.8 °C 4.0 °F /  -15.6 °C 1009.0 in /  34164.7 hPa Calm   6.9 mph /  11.1 km/h 98 % 0.3 in /  7.62 mm
02:03 3.5 °F /  -15.8 °C 4.0 °F /  -15.6 °C 1009.0 in /  34164.7 hPa Calm   5.5 mph /  8.9 km/h 98 % 0.0 in /  0 mm
02:08 3.5 °F /  -15.8 °C 4.0 °F /  -15.6 °C 1009.0 in /  34164.7 hPa NNW 6.1 mph /  9.8 km/h 6.9 mph /  11.1 km/h 98 % 0.0 in /  0 mm
02:13 3.5 °F /  -15.8 °C 4.0 °F /  -15.6 °C 1009.0 in /  34164.7 hPa Calm   7.6 mph /  12.2 km/h 98 % 0.0 in /  0 mm
02:18 3.4 °F /  -15.9 °C 3.0 °F /  -16.1 °C 1009.0 in /  34164.7 hPa NW 1.4 mph /  2.3 km/h 7.6 mph /  12.2 km/h 98 % 0.0 in /  0 mm
02:23 3.3 °F /  -15.9 °C 3.0 °F /  -16.1 °C 1009.0 in /  34164.7 hPa Calm   6.1 mph /  9.8 km/h 98 % 0.0 in /  0 mm
02:28 3.3 °F /  -15.9 °C 3.0 °F /  -16.1 °C 1009.0 in /  34164.7 hPa NW 4.3 mph /  6.9 km/h 6.4 mph /  10.3 km/h 98 % 0.0 in /  0 mm
02:33 3.3 °F /  -15.9 °C 3.0 °F /  -16.1 °C 1010.0 in /  34198.6 hPa Calm   6.4 mph /  10.3 km/h 98 % 0.0 in /  0 mm
02:38 3.1 °F /  -16.1 °C 3.0 °F /  -16.1 °C 1010.0 in /  34198.6 hPa Calm   5.5 mph /  8.9 km/h 98 % 0.0 in /  0 mm
02:43 3.1 °F /  -16.1 °C 3.0 °F /  -16.1 °C 1010.0 in /  34198.6 hPa Calm   4.3 mph /  6.9 km/h 98 % 0.0 in /  0 mm
02:48 3.0 °F /  -16.1 °C 3.0 °F /  -16.1 °C 1010.0 in /  34198.6 hPa WNW 3.2 mph /  5.1 km/h 5.5 mph /  8.9 km/h 98 % 0.0 in /  0 mm
02:53 2.9 °F /  -16.2 °C 3.0 °F /  -16.1 °C 1010.0 in /  34198.6 hPa Calm   5.5 mph /  8.9 km/h 98 % 0.0 in /  0 mm
02:58 2.8 °F /  -16.2 °C 3.0 °F /  -16.1 °C 1010.0 in /  34198.6 hPa Calm   4.3 mph /  6.9 km/h 98 % 0.0 in /  0 mm
03:03 2.8 °F /  -16.2 °C 3.0 °F /  -16.1 °C 1010.0 in /  34198.6 hPa West 4.0 mph /  6.4 km/h 6.1 mph /  9.8 km/h 98 % 0.0 in /  0 mm
03:08 2.8 °F /  -16.2 °C 3.0 °F /  -16.1 °C 1010.0 in /  34198.6 hPa West 4.7 mph /  7.6 km/h 6.4 mph /  10.3 km/h 98 % 0.0 in /  0 mm
03:13 2.7 °F /  -16.3 °C 3.0 °F /  -16.1 °C 1011.1 in /  34235.8 hPa Calm   6.4 mph /  10.3 km/h 98 % 0.0 in /  0 mm
03:18 2.6 °F /  -16.3 °C 3.0 °F /  -16.1 °C 1011.1 in /  34235.8 hPa Calm   6.1 mph /  9.8 km/h 98 % 0.0 in /  0 mm
03:23 2.6 °F /  -16.3 °C 3.0 °F /  -16.1 °C 1011.1 in /  34235.8 hPa West 5.0 mph /  8 km/h 6.1 mph /  9.8 km/h 98 % 0.0 in /  0 mm
03:28 2.6 °F /  -16.3 °C 3.0 °F /  -16.1 °C 1011.1 in /  34235.8 hPa Calm   5.0 mph /  8 km/h 98 % 0.0 in /  0 mm
03:33 2.5 °F /  -16.4 °C 3.0 °F /  -16.1 °C 1011.1 in /  34235.8 hPa Calm   5.0 mph /  8 km/h 98 % 0.0 in /  0 mm
03:39 2.4 °F /  -16.4 °C 3.0 °F /  -16.1 °C 1011.1 in /  34235.8 hPa Calm   4.3 mph /  6.9 km/h 98 % 0.0 in /  0 mm
03:44 2.3 °F /  -16.5 °C 3.0 °F /  -16.1 °C 1010.0 in /  34198.6 hPa Calm   6.4 mph /  10.3 km/h 98 % 0.0 in /  0 mm
03:49 2.2 °F /  -16.6 °C 2.0 °F /  -16.7 °C 1010.0 in /  34198.6 hPa West 5.5 mph /  8.9 km/h 6.4 mph /  10.3 km/h 98 % 0.0 in /  0 mm
03:54 2.1 °F /  -16.6 °C 2.0 °F /  -16.7 °C 1010.0 in /  34198.6 hPa West 1.4 mph /  2.3 km/h 6.4 mph /  10.3 km/h 98 % 0.0 in /  0 mm
03:59 2.1 °F /  -16.6 °C 2.0 °F /  -16.7 °C 1010.0 in /  34198.6 hPa Calm   6.4 mph /  10.3 km/h 98 % 0.0 in /  0 mm
04:04 2.1 °F /  -16.6 °C 2.0 °F /  -16.7 °C 1010.0 in /  34198.6 hPa West 6.1 mph /  9.8 km/h 6.4 mph /  10.3 km/h 98 % 0.0 in /  0 mm
04:09 2.1 °F /  -16.6 °C 2.0 °F /  -16.7 °C 1010.0 in /  34198.6 hPa Calm   7.9 mph /  12.7 km/h 98 % 0.0 in /  0 mm
04:14 2.1 °F /  -16.6 °C 2.0 °F /  -16.7 °C 1011.1 in /  34235.8 hPa Calm   7.9 mph /  12.7 km/h 98 % 0.0 in /  0 mm
04:19 2.1 °F /  -16.6 °C 2.0 °F /  -16.7 °C 1011.1 in /  34235.8 hPa West 2.6 mph /  4.2 km/h 4.0 mph /  6.4 km/h 98 % 0.0 in /  0 mm
04:24 2.0 °F /  -16.7 °C 2.0 °F /  -16.7 °C 1011.1 in /  34235.8 hPa Calm   4.7 mph /  7.6 km/h 98 % 0.0 in /  0 mm
04:29 2.0 °F /  -16.7 °C 2.0 °F /  -16.7 °C 1011.1 in /  34235.8 hPa Calm   4.7 mph /  7.6 km/h 98 % 0.0 in /  0 mm
04:34 2.0 °F /  -16.7 °C 2.0 °F /  -16.7 °C 1011.1 in /  34235.8 hPa Calm     98 % 0.0 in /  0 mm
04:39 1.9 °F /  -16.7 °C 2.0 °F /  -16.7 °C 1011.1 in /  34235.8 hPa West 6.1 mph /  9.8 km/h 6.1 mph /  9.8 km/h 98 % 0.0 in /  0 mm
04:44 1.9 °F /  -16.7 °C 2.0 °F /  -16.7 °C 1012.1 in /  34269.7 hPa West 5.5 mph /  8.9 km/h 7.6 mph /  12.2 km/h 98 % 0.0 in /  0 mm
04:49 1.9 °F /  -16.7 °C 2.0 °F /  -16.7 °C 1012.1 in /  34269.7 hPa Calm   7.6 mph /  12.2 km/h 98 % 0.0 in /  0 mm
04:54 2.0 °F /  -16.7 °C 2.0 °F /  -16.7 °C 1012.1 in /  34269.7 hPa West 5.0 mph /  8 km/h 6.9 mph /  11.1 km/h 98 % 0.0 in /  0 mm
04:59 2.0 °F /  -16.7 °C 2.0 °F /  -16.7 °C 1012.1 in /  34269.7 hPa WNW 1.8 mph /  2.9 km/h 6.9 mph /  11.1 km/h 98 % 0.0 in /  0 mm
05:04 2.0 °F /  -16.7 °C 2.0 °F /  -16.7 °C 1012.1 in /  34269.7 hPa Calm   4.7 mph /  7.6 km/h 98 % 0.0 in /  0 mm
05:09 1.9 °F /  -16.7 °C 2.0 °F /  -16.7 °C 1012.1 in /  34269.7 hPa Calm   4.3 mph /  6.9 km/h 98 % 0.0 in /  0 mm
05:14 1.9 °F /  -16.7 °C 2.0 °F /  -16.7 °C 1013.1 in /  34303.6 hPa Calm   2.6 mph /  4.2 km/h 98 % 0.0 in /  0 mm
05:19 1.9 °F /  -16.7 °C 2.0 °F /  -16.7 °C 1013.1 in /  34303.6 hPa Calm     98 % 0.0 in /  0 mm
05:24 1.8 °F /  -16.8 °C 2.0 °F /  -16.7 °C 1013.1 in /  34303.6 hPa Calm     98 % 0.0 in /  0 mm
05:29 1.7 °F /  -16.8 °C 2.0 °F /  -16.7 °C 1013.1 in /  34303.6 hPa Calm   2.6 mph /  4.2 km/h 98 % 0.0 in /  0 mm
05:34 1.6 °F /  -16.9 °C 2.0 °F /  -16.7 °C 1013.1 in /  34303.6 hPa WNW 5.0 mph /  8 km/h 5.0 mph /  8 km/h 98 % 0.0 in /  0 mm
05:39 1.6 °F /  -16.9 °C 2.0 °F /  -16.7 °C 1013.1 in /  34303.6 hPa Calm   5.0 mph /  8 km/h 98 % 0.0 in /  0 mm
05:44 1.5 °F /  -16.9 °C 2.0 °F /  -16.7 °C 1013.1 in /  34303.6 hPa Calm   5.0 mph /  8 km/h 98 % 0.0 in /  0 mm
05:49 1.4 °F /  -17 °C 1.0 °F /  -17.2 °C 1013.1 in /  34303.6 hPa Calm   4.3 mph /  6.9 km/h 98 % 0.0 in /  0 mm
05:54 1.4 °F /  -17 °C 1.0 °F /  -17.2 °C 1013.1 in /  34303.6 hPa Calm   4.3 mph /  6.9 km/h 98 % 0.0 in /  0 mm
05:59 1.4 °F /  -17 °C 1.0 °F /  -17.2 °C 1014.1 in /  34337.4 hPa Calm   3.2 mph /  5.1 km/h 98 % 0.0 in /  0 mm
06:04 1.4 °F /  -17 °C 1.0 °F /  -17.2 °C 1014.1 in /  34337.4 hPa Calm     98 % 0.0 in /  0 mm
06:07 1.4 °F /  -17 °C 1.0 °F /  -17.2 °C 1014.1 in /  34337.4 hPa Calm     98 % 0.0 in /  0 mm
06:12 1.4 °F /  -17 °C 1.0 °F /  -17.2 °C 1014.1 in /  34337.4 hPa Calm   4.0 mph /  6.4 km/h 98 % 0.3 in /  7.62 mm
06:17 1.3 °F /  -17.1 °C 1.0 °F /  -17.2 °C 1013.1 in /  34303.6 hPa Calm   4.0 mph /  6.4 km/h 98 % 0.3 in /  7.62 mm
06:22 1.3 °F /  -17.1 °C 1.0 °F /  -17.2 °C 1013.1 in /  34303.6 hPa Calm   2.6 mph /  4.2 km/h 98 % 0.3 in /  7.62 mm
06:27 1.2 °F /  -17.1 °C 1.0 °F /  -17.2 °C 1013.1 in /  34303.6 hPa WSW 6.4 mph /  10.3 km/h 6.4 mph /  10.3 km/h 98 % 0.3 in /  7.62 mm
06:32 1.3 °F /  -17.1 °C 1.0 °F /  -17.2 °C 1013.1 in /  34303.6 hPa WSW 6.4 mph /  10.3 km/h 7.9 mph /  12.7 km/h 98 % 0.3 in /  7.62 mm
06:47 1.6 °F /  -16.9 °C 2.0 °F /  -16.7 °C 1013.1 in /  34303.6 hPa Calm   6.9 mph /  11.1 km/h 98 % 0.3 in /  7.62 mm
06:52 1.6 °F /  -16.9 °C 2.0 °F /  -16.7 °C 1013.1 in /  34303.6 hPa Calm   6.4 mph /  10.3 km/h 98 % 0.3 in /  7.62 mm
06:57 1.6 °F /  -16.9 °C 2.0 °F /  -16.7 °C 1013.1 in /  34303.6 hPa West 2.1 mph /  3.4 km/h 5.0 mph /  8 km/h 98 % 0.3 in /  7.62 mm
07:02 1.6 °F /  -16.9 °C 2.0 °F /  -16.7 °C 1013.1 in /  34303.6 hPa Calm   5.0 mph /  8 km/h 98 % 0.3 in /  7.62 mm
07:03 1.6 °F /  -16.9 °C 2.0 °F /  -16.7 °C 1013.1 in /  34303.6 hPa Calm   5.0 mph /  8 km/h 98 % 0.3 in /  7.62 mm
07:08 1.6 °F /  -16.9 °C 2.0 °F /  -16.7 °C 1013.1 in /  34303.6 hPa West 3.5 mph /  5.6 km/h 6.1 mph /  9.8 km/h 98 % 0.0 in /  0 mm
07:13 1.6 °F /  -16.9 °C 2.0 °F /  -16.7 °C 1013.1 in /  34303.6 hPa Calm   6.1 mph /  9.8 km/h 98 % 0.0 in /  0 mm
07:18 1.7 °F /  -16.8 °C 2.0 °F /  -16.7 °C 1013.1 in /  34303.6 hPa West 2.1 mph /  3.4 km/h 4.0 mph /  6.4 km/h 98 % 0.0 in /  0 mm
07:28 1.7 °F /  -16.8 °C 2.0 °F /  -16.7 °C 1013.1 in /  34303.6 hPa West 6.4 mph /  10.3 km/h 6.4 mph /  10.3 km/h 98 % 0.0 in /  0 mm
07:33 1.7 °F /  -16.8 °C 2.0 °F /  -16.7 °C 1014.1 in /  34337.4 hPa West 4.3 mph /  6.9 km/h 6.4 mph /  10.3 km/h 98 % 0.0 in /  0 mm
07:43 1.7 °F /  -16.8 °C 2.0 °F /  -16.7 °C 1014.1 in /  34337.4 hPa Calm   6.4 mph /  10.3 km/h 98 % 0.0 in /  0 mm
07:48 1.6 °F /  -16.9 °C 2.0 °F /  -16.7 °C 1014.1 in /  34337.4 hPa West 5.8 mph /  9.3 km/h 6.1 mph /  9.8 km/h 98 % 0.0 in /  0 mm
07:53 1.7 °F /  -16.8 °C 2.0 °F /  -16.7 °C 1014.1 in /  34337.4 hPa West 3.2 mph /  5.1 km/h 6.4 mph /  10.3 km/h 98 % 0.0 in /  0 mm
07:58 1.7 °F /  -16.8 °C 2.0 °F /  -16.7 °C 1014.1 in /  34337.4 hPa Calm   6.4 mph /  10.3 km/h 98 % 0.0 in /  0 mm
08:03 1.6 °F /  -16.9 °C 2.0 °F /  -16.7 °C 1015.1 in /  34371.3 hPa Calm   5.8 mph /  9.3 km/h 98 % 0.0 in /  0 mm
08:08 1.4 °F /  -17 °C 1.0 °F /  -17.2 °C 1015.1 in /  34371.3 hPa Calm   6.4 mph /  10.3 km/h 98 % 0.0 in /  0 mm
08:13 1.4 °F /  -17 °C 1.0 °F /  -17.2 °C 1015.1 in /  34371.3 hPa Calm   6.4 mph /  10.3 km/h 98 % 0.0 in /  0 mm
08:18 1.4 °F /  -17 °C 1.0 °F /  -17.2 °C 1015.1 in /  34371.3 hPa Calm   5.8 mph /  9.3 km/h 98 % 0.0 in /  0 mm
08:23 1.4 °F /  -17 °C 1.0 °F /  -17.2 °C 1015.1 in /  34371.3 hPa WSW 6.1 mph /  9.8 km/h 6.9 mph /  11.1 km/h 98 % 0.0 in /  0 mm
08:28 1.4 °F /  -17 °C 1.0 °F /  -17.2 °C 1015.1 in /  34371.3 hPa Calm   6.9 mph /  11.1 km/h 98 % 0.0 in /  0 mm
08:34 1.5 °F /  -16.9 °C 2.0 °F /  -16.7 °C 1015.1 in /  34371.3 hPa Calm   6.9 mph /  11.1 km/h 98 % 0.0 in /  0 mm
08:39 1.6 °F /  -16.9 °C 2.0 °F /  -16.7 °C 1015.1 in /  34371.3 hPa Calm   6.1 mph /  9.8 km/h 98 % 0.0 in /  0 mm
08:44 1.6 °F /  -16.9 °C 2.0 °F /  -16.7 °C 1014.1 in /  34337.4 hPa Calm     98 % 0.0 in /  0 mm
08:49 1.6 °F /  -16.9 °C 2.0 °F /  -16.7 °C 1014.1 in /  34337.4 hPa Calm   6.9 mph /  11.1 km/h 98 % 0.0 in /  0 mm
08:54 1.7 °F /  -16.8 °C 2.0 °F /  -16.7 °C 1014.1 in /  34337.4 hPa WSW 6.1 mph /  9.8 km/h 6.9 mph /  11.1 km/h 98 % 0.0 in /  0 mm
08:59 1.7 °F /  -16.8 °C 2.0 °F /  -16.7 °C 1014.1 in /  34337.4 hPa West 6.4 mph /  10.3 km/h 7.6 mph /  12.2 km/h 98 % 0.0 in /  0 mm
09:14 1.9 °F /  -16.7 °C 2.0 °F /  -16.7 °C 1015.1 in /  34371.3 hPa WSW 5.8 mph /  9.3 km/h 6.9 mph /  11.1 km/h 98 % 0.0 in /  0 mm
09:19 1.9 °F /  -16.7 °C 2.0 °F /  -16.7 °C 1015.1 in /  34371.3 hPa Calm   6.9 mph /  11.1 km/h 98 % 0.0 in /  0 mm
09:24 1.9 °F /  -16.7 °C 2.0 °F /  -16.7 °C 1015.1 in /  34371.3 hPa Calm   6.9 mph /  11.1 km/h 98 % 0.0 in /  0 mm
09:39 2.1 °F /  -16.6 °C 2.0 °F /  -16.7 °C 1015.1 in /  34371.3 hPa Calm   6.4 mph /  10.3 km/h 98 % 0.0 in /  0 mm
09:54 2.2 °F /  -16.6 °C 2.0 °F /  -16.7 °C 1016.1 in /  34405.1 hPa Calm     98 % 0.0 in /  0 mm
09:59 2.3 °F /  -16.5 °C 3.0 °F /  -16.1 °C 1016.1 in /  34405.1 hPa Calm   6.9 mph /  11.1 km/h 98 % 0.0 in /  0 mm
10:04 2.4 °F /  -16.4 °C 3.0 °F /  -16.1 °C 1016.1 in /  34405.1 hPa WSW 5.0 mph /  8 km/h 6.9 mph /  11.1 km/h 98 % 0.0 in /  0 mm
10:10 2.4 °F /  -16.4 °C 3.0 °F /  -16.1 °C 1016.1 in /  34405.1 hPa Calm   6.9 mph /  11.1 km/h 98 % 0.0 in /  0 mm
10:15 2.5 °F /  -16.4 °C 3.0 °F /  -16.1 °C 1016.1 in /  34405.1 hPa Calm   6.9 mph /  11.1 km/h 98 % 0.0 in /  0 mm
10:20 2.6 °F /  -16.3 °C 3.0 °F /  -16.1 °C 1016.1 in /  34405.1 hPa West 5.5 mph /  8.9 km/h 7.9 mph /  12.7 km/h 98 % 0.0 in /  0 mm
10:25 2.6 °F /  -16.3 °C 3.0 °F /  -16.1 °C 1016.1 in /  34405.1 hPa WSW 5.0 mph /  8 km/h 9.3 mph /  15 km/h 98 % 0.0 in /  0 mm
10:30 2.7 °F /  -16.3 °C 3.0 °F /  -16.1 °C 1016.1 in /  34405.1 hPa Calm   9.7 mph /  15.6 km/h 98 % 0.0 in /  0 mm
10:35 2.8 °F /  -16.2 °C 3.0 °F /  -16.1 °C 1016.1 in /  34405.1 hPa Calm   9.7 mph /  15.6 km/h 98 % 0.0 in /  0 mm
10:40 2.8 °F /  -16.2 °C 3.0 °F /  -16.1 °C 1016.1 in /  34405.1 hPa WSW 6.1 mph /  9.8 km/h 9.3 mph /  15 km/h 98 % 0.0 in /  0 mm
10:45 3.0 °F /  -16.1 °C 3.0 °F /  -16.1 °C 1016.8 in /  34428.8 hPa WSW 6.9 mph /  11.1 km/h 9.3 mph /  15 km/h 98 % 0.0 in /  0 mm
10:50 3.0 °F /  -16.1 °C 3.0 °F /  -16.1 °C 1016.8 in /  34428.8 hPa WSW 4.3 mph /  6.9 km/h 9.7 mph /  15.6 km/h 98 % 0.0 in /  0 mm
10:55 3.0 °F /  -16.1 °C 3.0 °F /  -16.1 °C 1016.8 in /  34428.8 hPa Calm   10.1 mph /  16.3 km/h 98 % 0.0 in /  0 mm
11:00 3.0 °F /  -16.1 °C 3.0 °F /  -16.1 °C 1016.8 in /  34428.8 hPa WSW 10.1 mph /  16.3 km/h 11.6 mph /  18.7 km/h 98 % 0.0 in /  0 mm
11:05 3.0 °F /  -16.1 °C 3.0 °F /  -16.1 °C 1016.8 in /  34428.8 hPa West 9.3 mph /  15 km/h 12.2 mph /  19.6 km/h 98 % 0.0 in /  0 mm
11:10 3.1 °F /  -16.1 °C 3.0 °F /  -16.1 °C 1016.8 in /  34428.8 hPa WSW 6.9 mph /  11.1 km/h 12.2 mph /  19.6 km/h 98 % 0.0 in /  0 mm
11:15 3.2 °F /  -16 °C 3.0 °F /  -16.1 °C 1016.8 in /  34428.8 hPa West 7.6 mph /  12.2 km/h 10.5 mph /  16.9 km/h 98 % 0.0 in /  0 mm
11:20 3.3 °F /  -15.9 °C 3.0 °F /  -16.1 °C 1016.8 in /  34428.8 hPa SSW 6.9 mph /  11.1 km/h 9.3 mph /  15 km/h 98 % 0.0 in /  0 mm
11:25 3.3 °F /  -15.9 °C 3.0 °F /  -16.1 °C 1016.8 in /  34428.8 hPa WSW 4.0 mph /  6.4 km/h 9.3 mph /  15 km/h 98 % 0.0 in /  0 mm
11:30 3.4 °F /  -15.9 °C 3.0 °F /  -16.1 °C 1016.1 in /  34405.1 hPa Calm   9.3 mph /  15 km/h 98 % 0.0 in /  0 mm
11:35 3.4 °F /  -15.9 °C 3.0 °F /  -16.1 °C 1016.1 in /  34405.1 hPa WSW 5.8 mph /  9.3 km/h 8.7 mph /  14 km/h 98 % 0.0 in /  0 mm
11:40 3.6 °F /  -15.8 °C 4.0 °F /  -15.6 °C 1016.1 in /  34405.1 hPa WSW 7.6 mph /  12.2 km/h 8.7 mph /  14 km/h 98 % 0.0 in /  0 mm
11:45 3.6 °F /  -15.8 °C 4.0 °F /  -15.6 °C 1016.8 in /  34428.8 hPa WSW 2.1 mph /  3.4 km/h 9.3 mph /  15 km/h 98 % 0.0 in /  0 mm
11:50 3.6 °F /  -15.8 °C 4.0 °F /  -15.6 °C 1016.8 in /  34428.8 hPa WSW 1.8 mph /  2.9 km/h 9.3 mph /  15 km/h 98 % 0.0 in /  0 mm
11:55 3.6 °F /  -15.8 °C 4.0 °F /  -15.6 °C 1016.8 in /  34428.8 hPa WSW 6.9 mph /  11.1 km/h 10.5 mph /  16.9 km/h 98 % 0.0 in /  0 mm
12:00 3.7 °F /  -15.7 °C 4.0 °F /  -15.6 °C 1016.1 in /  34405.1 hPa WSW 10.1 mph /  16.3 km/h 10.5 mph /  16.9 km/h 98 % 0.0 in /  0 mm
12:05 3.7 °F /  -15.7 °C 4.0 °F /  -15.6 °C 1016.1 in /  34405.1 hPa Calm   10.1 mph /  16.3 km/h 98 % 0.0 in /  0 mm
12:10 3.8 °F /  -15.7 °C 4.0 °F /  -15.6 °C 1016.1 in /  34405.1 hPa Calm   10.1 mph /  16.3 km/h 98 % 0.0 in /  0 mm
12:15 3.8 °F /  -15.7 °C 4.0 °F /  -15.6 °C 1016.1 in /  34405.1 hPa Calm   9.0 mph /  14.5 km/h 98 % 0.0 in /  0 mm
12:20 3.8 °F /  -15.7 °C 4.0 °F /  -15.6 °C 1016.1 in /  34405.1 hPa Calm   9.0 mph /  14.5 km/h 98 % 0.0 in /  0 mm
12:25 3.9 °F /  -15.6 °C 4.0 °F /  -15.6 °C 1016.1 in /  34405.1 hPa South 3.2 mph /  5.1 km/h 7.2 mph /  11.6 km/h 98 % 0.0 in /  0 mm
12:30 4.0 °F /  -15.6 °C 4.0 °F /  -15.6 °C 1016.1 in /  34405.1 hPa SW 6.4 mph /  10.3 km/h 6.4 mph /  10.3 km/h 98 % 0.0 in /  0 mm
12:35 4.1 °F /  -15.5 °C 4.0 °F /  -15.6 °C 1016.1 in /  34405.1 hPa WSW 2.6 mph /  4.2 km/h 9.0 mph /  14.5 km/h 98 % 0.0 in /  0 mm
12:40 4.2 °F /  -15.4 °C 4.0 °F /  -15.6 °C 1016.1 in /  34405.1 hPa SW 1.8 mph /  2.9 km/h 9.0 mph /  14.5 km/h 98 % 0.0 in /  0 mm
12:45 4.3 °F /  -15.4 °C 4.0 °F /  -15.6 °C 1015.1 in /  34371.3 hPa South 4.7 mph /  7.6 km/h 6.4 mph /  10.3 km/h 98 % 0.0 in /  0 mm
12:50 4.3 °F /  -15.4 °C 4.0 °F /  -15.6 °C 1015.1 in /  34371.3 hPa SSW 9.3 mph /  15 km/h 10.5 mph /  16.9 km/h 98 % 0.0 in /  0 mm
12:55 4.4 °F /  -15.3 °C 4.0 °F /  -15.6 °C 1015.1 in /  34371.3 hPa SSW 8.7 mph /  14 km/h 10.5 mph /  16.9 km/h 98 % 0.0 in /  0 mm
13:00 4.4 °F /  -15.3 °C 4.0 °F /  -15.6 °C 1015.1 in /  34371.3 hPa WSW 7.6 mph /  12.2 km/h 10.5 mph /  16.9 km/h 98 % 0.0 in /  0 mm
13:05 4.5 °F /  -15.3 °C 5.0 °F /  -15 °C 1015.1 in /  34371.3 hPa SSW 12.6 mph /  20.3 km/h 12.6 mph /  20.3 km/h 98 % 0.0 in /  0 mm
13:11 4.5 °F /  -15.3 °C 5.0 °F /  -15 °C 1015.1 in /  34371.3 hPa SSW 3.5 mph /  5.6 km/h 13.0 mph /  20.9 km/h 98 % 0.0 in /  0 mm
13:16 4.5 °F /  -15.3 °C 5.0 °F /  -15 °C 1015.1 in /  34371.3 hPa SSW 6.9 mph /  11.1 km/h 13.0 mph /  20.9 km/h 98 % 0.0 in /  0 mm
13:21 4.5 °F /  -15.3 °C 5.0 °F /  -15 °C 1015.1 in /  34371.3 hPa WSW 7.6 mph /  12.2 km/h 15.4 mph /  24.8 km/h 98 % 0.0 in /  0 mm
13:26 4.6 °F /  -15.2 °C 5.0 °F /  -15 °C 1015.1 in /  34371.3 hPa WSW 5.8 mph /  9.3 km/h 15.4 mph /  24.8 km/h 98 % 0.0 in /  0 mm
13:31 4.7 °F /  -15.2 °C 5.0 °F /  -15 °C 1015.1 in /  34371.3 hPa West 10.1 mph /  16.3 km/h 10.1 mph /  16.3 km/h 98 % 0.0 in /  0 mm
13:36 4.6 °F /  -15.2 °C 5.0 °F /  -15 °C 1015.1 in /  34371.3 hPa WSW 16.6 mph /  26.7 km/h 17.7 mph /  28.5 km/h 98 % 0.0 in /  0 mm
13:41 4.4 °F /  -15.3 °C 4.0 °F /  -15.6 °C 1015.1 in /  34371.3 hPa SW 10.5 mph /  16.9 km/h 17.7 mph /  28.5 km/h 98 % 0.0 in /  0 mm
13:46 4.4 °F /  -15.3 °C 4.0 °F /  -15.6 °C 1015.1 in /  34371.3 hPa WSW 13.0 mph /  20.9 km/h 17.2 mph /  27.7 km/h 98 % 0.0 in /  0 mm
13:51 4.4 °F /  -15.3 °C 4.0 °F /  -15.6 °C 1015.1 in /  34371.3 hPa SW 12.2 mph /  19.6 km/h 13.7 mph /  22 km/h 98 % 0.0 in /  0 mm
13:56 4.4 °F /  -15.3 °C 4.0 °F /  -15.6 °C 1015.1 in /  34371.3 hPa WSW 17.2 mph /  27.7 km/h 17.2 mph /  27.7 km/h 98 % 0.0 in /  0 mm
14:01 4.3 °F /  -15.4 °C 4.0 °F /  -15.6 °C 1015.1 in /  34371.3 hPa SW 13.7 mph /  22 km/h 17.2 mph /  27.7 km/h 97 % 0.0 in /  0 mm
14:06 4.2 °F /  -15.4 °C 4.0 °F /  -15.6 °C 1015.1 in /  34371.3 hPa WSW 11.9 mph /  19.2 km/h 17.2 mph /  27.7 km/h 96 % 0.0 in /  0 mm
14:11 4.1 °F /  -15.5 °C 3.0 °F /  -16.1 °C 1015.1 in /  34371.3 hPa WSW 11.9 mph /  19.2 km/h 17.2 mph /  27.7 km/h 94 % 0.0 in /  0 mm
14:16 4.0 °F /  -15.6 °C 3.0 °F /  -16.1 °C 1015.1 in /  34371.3 hPa SSW 9.3 mph /  15 km/h 17.2 mph /  27.7 km/h 94 % 0.0 in /  0 mm
14:21 3.9 °F /  -15.6 °C 3.0 °F /  -16.1 °C 1015.1 in /  34371.3 hPa WSW 15.1 mph /  24.3 km/h 15.1 mph /  24.3 km/h 94 % 0.0 in /  0 mm
14:26 3.8 °F /  -15.7 °C 3.0 °F /  -16.1 °C 1015.1 in /  34371.3 hPa SW 10.5 mph /  16.9 km/h 15.1 mph /  24.3 km/h 94 % 0.0 in /  0 mm
14:31 3.7 °F /  -15.7 °C 3.0 °F /  -16.1 °C 1015.1 in /  34371.3 hPa SSW 12.2 mph /  19.6 km/h 17.2 mph /  27.7 km/h 94 % 0.0 in /  0 mm
14:37 3.6 °F /  -15.8 °C 3.0 °F /  -16.1 °C 1015.1 in /  34371.3 hPa SW 10.5 mph /  16.9 km/h 17.2 mph /  27.7 km/h 94 % 0.0 in /  0 mm
14:42 3.5 °F /  -15.8 °C 3.0 °F /  -16.1 °C 1015.1 in /  34371.3 hPa SSW 10.1 mph /  16.3 km/h 12.2 mph /  19.6 km/h 95 % 0.0 in /  0 mm
14:47 3.4 °F /  -15.9 °C 3.0 °F /  -16.1 °C 1015.1 in /  34371.3 hPa SSW 11.6 mph /  18.7 km/h 11.6 mph /  18.7 km/h 95 % 0.0 in /  0 mm
14:52 3.3 °F /  -15.9 °C 3.0 °F /  -16.1 °C 1015.1 in /  34371.3 hPa SSW 12.6 mph /  20.3 km/h 15.8 mph /  25.4 km/h 95 % 0.3 in /  7.62 mm
14:57 3.2 °F /  -16 °C 3.0 °F /  -16.1 °C 1015.1 in /  34371.3 hPa SSW 8.7 mph /  14 km/h 15.8 mph /  25.4 km/h 96 % 0.3 in /  7.62 mm
15:02 3.0 °F /  -16.1 °C 3.0 °F /  -16.1 °C 1015.1 in /  34371.3 hPa SSW 10.1 mph /  16.3 km/h 15.4 mph /  24.8 km/h 96 % 0.3 in /  7.62 mm
15:07 3.0 °F /  -16.1 °C 3.0 °F /  -16.1 °C 1015.1 in /  34371.3 hPa SSW 9.7 mph /  15.6 km/h 15.4 mph /  24.8 km/h 96 % 0.5 in /  12.7 mm
15:12 2.9 °F /  -16.2 °C 3.0 °F /  -16.1 °C 1015.1 in /  34371.3 hPa SSW 4.7 mph /  7.6 km/h 9.7 mph /  15.6 km/h 97 % 0.5 in /  12.7 mm
15:17 2.8 °F /  -16.2 °C 3.0 °F /  -16.1 °C 1015.1 in /  34371.3 hPa South 8.7 mph /  14 km/h 14.3 mph /  23 km/h 98 % 0.5 in /  12.7 mm
15:22 2.7 °F /  -16.3 °C 3.0 °F /  -16.1 °C 1015.1 in /  34371.3 hPa South 7.9 mph /  12.7 km/h 14.3 mph /  23 km/h 98 % 0.8 in /  20.32 mm
15:27 2.7 °F /  -16.3 °C 3.0 °F /  -16.1 °C 1015.1 in /  34371.3 hPa WSW 9.7 mph /  15.6 km/h 13.0 mph /  20.9 km/h 98 % 0.8 in /  20.32 mm
15:32 2.6 °F /  -16.3 °C 3.0 °F /  -16.1 °C 1015.1 in /  34371.3 hPa SSE 6.4 mph /  10.3 km/h 13.0 mph /  20.9 km/h 98 % 0.8 in /  20.32 mm
15:37 2.6 °F /  -16.3 °C 3.0 °F /  -16.1 °C 1015.1 in /  34371.3 hPa South 9.7 mph /  15.6 km/h 14.8 mph /  23.8 km/h 98 % 1.3 in /  33.02 mm
15:42 2.6 °F /  -16.3 °C 3.0 °F /  -16.1 °C 1015.1 in /  34371.3 hPa SSW 6.4 mph /  10.3 km/h 14.8 mph /  23.8 km/h 98 % 1.3 in /  33.02 mm
15:47 2.6 °F /  -16.3 °C 3.0 °F /  -16.1 °C 1015.1 in /  34371.3 hPa SSE 4.3 mph /  6.9 km/h 17.2 mph /  27.7 km/h 98 % 1.3 in /  33.02 mm
15:52 2.5 °F /  -16.4 °C 3.0 °F /  -16.1 °C 1015.1 in /  34371.3 hPa SSE 7.9 mph /  12.7 km/h 17.7 mph /  28.5 km/h 98 % 0.8 in /  20.32 mm
15:58 2.5 °F /  -16.4 °C 3.0 °F /  -16.1 °C 1015.1 in /  34371.3 hPa SSE 9.7 mph /  15.6 km/h 17.7 mph /  28.5 km/h 98 % 1.3 in /  33.02 mm
16:03 2.5 °F /  -16.4 °C 3.0 °F /  -16.1 °C 1014.1 in /  34337.4 hPa SSE 10.5 mph /  16.9 km/h 16.6 mph /  26.7 km/h 98 % 1.3 in /  33.02 mm
16:08 2.4 °F /  -16.4 °C 3.0 °F /  -16.1 °C 1014.1 in /  34337.4 hPa South 6.4 mph /  10.3 km/h 16.6 mph /  26.7 km/h 98 % 1.0 in /  25.4 mm
16:13 2.4 °F /  -16.4 °C 3.0 °F /  -16.1 °C 1014.1 in /  34337.4 hPa SSE 20.9 mph /  33.6 km/h 20.9 mph /  33.6 km/h 98 % 1.0 in /  25.4 mm
16:18 2.4 °F /  -16.4 °C 3.0 °F /  -16.1 °C 1014.1 in /  34337.4 hPa SE 12.2 mph /  19.6 km/h 20.9 mph /  33.6 km/h 98 % 1.0 in /  25.4 mm
16:23 2.3 °F /  -16.5 °C 3.0 °F /  -16.1 °C 1014.1 in /  34337.4 hPa SE 9.7 mph /  15.6 km/h 20.9 mph /  33.6 km/h 98 % 1.0 in /  25.4 mm
16:28 2.4 °F /  -16.4 °C 3.0 °F /  -16.1 °C 1014.1 in /  34337.4 hPa SSE 9.3 mph /  15 km/h 16.6 mph /  26.7 km/h 98 % 1.0 in /  25.4 mm
16:33 2.3 °F /  -16.5 °C 3.0 °F /  -16.1 °C 1014.1 in /  34337.4 hPa SSE 13.0 mph /  20.9 km/h 13.0 mph /  20.9 km/h 98 % 1.0 in /  25.4 mm
16:38 2.3 °F /  -16.5 °C 3.0 °F /  -16.1 °C 1014.1 in /  34337.4 hPa Calm   16.6 mph /  26.7 km/h 98 % 0.8 in /  20.32 mm
16:43 2.3 °F /  -16.5 °C 3.0 °F /  -16.1 °C 1014.1 in /  34337.4 hPa SSE 12.2 mph /  19.6 km/h 16.6 mph /  26.7 km/h 98 % 1.0 in /  25.4 mm
16:48 2.3 °F /  -16.5 °C 3.0 °F /  -16.1 °C 1014.1 in /  34337.4 hPa SSE 9.3 mph /  15 km/h 14.0 mph /  22.5 km/h 98 % 1.0 in /  25.4 mm
16:53 2.3 °F /  -16.5 °C 3.0 °F /  -16.1 °C 1014.1 in /  34337.4 hPa SE 12.2 mph /  19.6 km/h 15.4 mph /  24.8 km/h 98 % 1.0 in /  25.4 mm
16:58 2.3 °F /  -16.5 °C 3.0 °F /  -16.1 °C 1014.1 in /  34337.4 hPa SSE 6.9 mph /  11.1 km/h 15.8 mph /  25.4 km/h 98 % 0.8 in /  20.32 mm
17:03 2.3 °F /  -16.5 °C 3.0 °F /  -16.1 °C 1013.1 in /  34303.6 hPa SSE 8.7 mph /  14 km/h 24.8 mph /  39.9 km/h 98 % 0.8 in /  20.32 mm
17:08 2.3 °F /  -16.5 °C 3.0 °F /  -16.1 °C 1013.1 in /  34303.6 hPa SE 13.7 mph /  22 km/h 24.8 mph /  39.9 km/h 98 % 0.8 in /  20.32 mm
17:13 2.2 °F /  -16.6 °C 2.0 °F /  -16.7 °C 1013.1 in /  34303.6 hPa SE 13.7 mph /  22 km/h 20.9 mph /  33.6 km/h 98 % 0.8 in /  20.32 mm
17:18 2.2 °F /  -16.6 °C 2.0 °F /  -16.7 °C 1013.1 in /  34303.6 hPa SE 13.7 mph /  22 km/h 13.7 mph /  22 km/h 98 % 1.3 in /  33.02 mm
17:23 2.2 °F /  -16.6 °C 2.0 °F /  -16.7 °C 1013.1 in /  34303.6 hPa SE 13.7 mph /  22 km/h 13.7 mph /  22 km/h 98 % 0.8 in /  20.32 mm
17:28 2.1 °F /  -16.6 °C 2.0 °F /  -16.7 °C 1013.1 in /  34303.6 hPa SE 13.7 mph /  22 km/h 13.7 mph /  22 km/h 98 % 0.8 in /  20.32 mm
17:34 2.1 °F /  -16.6 °C 2.0 °F /  -16.7 °C 1013.1 in /  34303.6 hPa SE 13.7 mph /  22 km/h 13.7 mph /  22 km/h 98 % 0.8 in /  20.32 mm
17:39 2.1 °F /  -16.6 °C 2.0 °F /  -16.7 °C 1013.1 in /  34303.6 hPa SE 13.7 mph /  22 km/h 13.7 mph /  22 km/h 98 % 1.3 in /  33.02 mm
17:44 2.2 °F /  -16.6 °C 2.0 °F /  -16.7 °C 1013.1 in /  34303.6 hPa SE 13.7 mph /  22 km/h 13.7 mph /  22 km/h 98 % 0.8 in /  20.32 mm
17:49 2.2 °F /  -16.6 °C 2.0 °F /  -16.7 °C 1013.1 in /  34303.6 hPa SE 13.7 mph /  22 km/h 13.7 mph /  22 km/h 98 % 0.8 in /  20.32 mm
17:54 2.2 °F /  -16.6 °C 2.0 °F /  -16.7 °C 1013.1 in /  34303.6 hPa SE 13.7 mph /  22 km/h 13.7 mph /  22 km/h 98 % 0.8 in /  20.32 mm
17:59 2.3 °F /  -16.5 °C 3.0 °F /  -16.1 °C 1013.1 in /  34303.6 hPa SE 13.7 mph /  22 km/h 13.7 mph /  22 km/h 98 % 0.5 in /  12.7 mm
18:04 2.3 °F /  -16.5 °C 3.0 °F /  -16.1 °C 1013.1 in /  34303.6 hPa SE 13.7 mph /  22 km/h 13.7 mph /  22 km/h 98 % 0.5 in /  12.7 mm
18:09 2.3 °F /  -16.5 °C 3.0 °F /  -16.1 °C 1013.1 in /  34303.6 hPa SE 13.7 mph /  22 km/h 13.7 mph /  22 km/h 98 % 0.5 in /  12.7 mm
18:14 2.3 °F /  -16.5 °C 3.0 °F /  -16.1 °C 1012.1 in /  34269.7 hPa SE 13.7 mph /  22 km/h 13.7 mph /  22 km/h 98 % 0.3 in /  7.62 mm
18:19 2.3 °F /  -16.5 °C 3.0 °F /  -16.1 °C 1012.1 in /  34269.7 hPa SE 13.7 mph /  22 km/h 13.7 mph /  22 km/h 98 % 0.5 in /  12.7 mm
18:24 2.3 °F /  -16.5 °C 3.0 °F /  -16.1 °C 1012.1 in /  34269.7 hPa SSE 14.0 mph /  22.5 km/h 14.0 mph /  22.5 km/h 98 % 0.5 in /  12.7 mm
18:29 2.3 °F /  -16.5 °C 3.0 °F /  -16.1 °C 1011.1 in /  34235.8 hPa South 12.2 mph /  19.6 km/h 15.1 mph /  24.3 km/h 98 % 0.5 in /  12.7 mm
18:34 2.4 °F /  -16.4 °C 3.0 °F /  -16.1 °C 1011.1 in /  34235.8 hPa South 12.2 mph /  19.6 km/h 15.1 mph /  24.3 km/h 98 % 0.5 in /  12.7 mm
18:39 2.4 °F /  -16.4 °C 3.0 °F /  -16.1 °C 1011.1 in /  34235.8 hPa South 12.2 mph /  19.6 km/h 12.2 mph /  19.6 km/h 98 % 0.8 in /  20.32 mm
18:44 2.4 °F /  -16.4 °C 3.0 °F /  -16.1 °C 1011.1 in /  34235.8 hPa South 12.2 mph /  19.6 km/h 12.2 mph /  19.6 km/h 98 % 0.8 in /  20.32 mm
18:49 2.4 °F /  -16.4 °C 3.0 °F /  -16.1 °C 1011.1 in /  34235.8 hPa South 12.2 mph /  19.6 km/h 12.2 mph /  19.6 km/h 98 % 0.8 in /  20.32 mm
18:54 2.5 °F /  -16.4 °C 3.0 °F /  -16.1 °C 1011.1 in /  34235.8 hPa South 12.2 mph /  19.6 km/h 12.2 mph /  19.6 km/h 98 % 0.8 in /  20.32 mm
18:59 2.5 °F /  -16.4 °C 3.0 °F /  -16.1 °C 1011.1 in /  34235.8 hPa South 12.2 mph /  19.6 km/h 12.2 mph /  19.6 km/h 98 % 0.8 in /  20.32 mm
19:04 2.6 °F /  -16.3 °C 3.0 °F /  -16.1 °C 1011.1 in /  34235.8 hPa SSE 16.6 mph /  26.7 km/h 16.6 mph /  26.7 km/h 98 % 1.0 in /  25.4 mm
19:09 2.6 °F /  -16.3 °C 3.0 °F /  -16.1 °C 1011.1 in /  34235.8 hPa SSE 16.6 mph /  26.7 km/h 16.6 mph /  26.7 km/h 98 % 1.0 in /  25.4 mm
19:14 2.6 °F /  -16.3 °C 3.0 °F /  -16.1 °C 1011.1 in /  34235.8 hPa SE 13.7 mph /  22 km/h 16.6 mph /  26.7 km/h 98 % 1.0 in /  25.4 mm
19:19 2.6 °F /  -16.3 °C 3.0 °F /  -16.1 °C 1011.1 in /  34235.8 hPa SE 6.1 mph /  9.8 km/h 16.6 mph /  26.7 km/h 98 % 0.8 in /  20.32 mm
19:24 2.6 °F /  -16.3 °C 3.0 °F /  -16.1 °C 1011.1 in /  34235.8 hPa South 13.0 mph /  20.9 km/h 16.6 mph /  26.7 km/h 98 % 0.8 in /  20.32 mm
19:29 2.6 °F /  -16.3 °C 3.0 °F /  -16.1 °C 1010.0 in /  34198.6 hPa SSE 16.3 mph /  26.2 km/h 28.0 mph /  45.1 km/h 98 % 1.0 in /  25.4 mm
19:34 2.6 °F /  -16.3 °C 3.0 °F /  -16.1 °C 1010.0 in /  34198.6 hPa SSE 20.1 mph /  32.3 km/h 28.0 mph /  45.1 km/h 98 % 1.0 in /  25.4 mm
19:39 2.7 °F /  -16.3 °C 3.0 °F /  -16.1 °C 1010.0 in /  34198.6 hPa SSE 13.7 mph /  22 km/h 27.4 mph /  44.1 km/h 98 % 0.8 in /  20.32 mm
19:44 2.7 °F /  -16.3 °C 3.0 °F /  -16.1 °C 1010.0 in /  34198.6 hPa SSW 17.2 mph /  27.7 km/h 20.1 mph /  32.3 km/h 98 % 1.3 in /  33.02 mm
19:49 2.7 °F /  -16.3 °C 3.0 °F /  -16.1 °C 1010.0 in /  34198.6 hPa SSE 7.9 mph /  12.7 km/h 23.0 mph /  37 km/h 98 % 1.3 in /  33.02 mm
19:54 2.7 °F /  -16.3 °C 3.0 °F /  -16.1 °C 1010.0 in /  34198.6 hPa SSE 13.7 mph /  22 km/h 23.0 mph /  37 km/h 98 % 1.5 in /  38.1 mm
19:59 2.7 °F /  -16.3 °C 3.0 °F /  -16.1 °C 1010.0 in /  34198.6 hPa SSE 11.9 mph /  19.2 km/h 15.8 mph /  25.4 km/h 98 % 1.8 in /  45.72 mm
20:04 2.7 °F /  -16.3 °C 3.0 °F /  -16.1 °C 1010.0 in /  34198.6 hPa SSE 11.9 mph /  19.2 km/h 13.7 mph /  22 km/h 98 % 1.8 in /  45.72 mm
20:09 2.7 °F /  -16.3 °C 3.0 °F /  -16.1 °C 1010.0 in /  34198.6 hPa SSE 5.8 mph /  9.3 km/h 11.9 mph /  19.2 km/h 98 % 1.8 in /  45.72 mm
20:14 2.7 °F /  -16.3 °C 3.0 °F /  -16.1 °C 1009.0 in /  34164.7 hPa SSE 5.8 mph /  9.3 km/h 11.9 mph /  19.2 km/h 98 % 2.3 in /  58.42 mm
20:19 2.8 °F /  -16.2 °C 3.0 °F /  -16.1 °C 1009.0 in /  34164.7 hPa SSE 5.8 mph /  9.3 km/h 5.8 mph /  9.3 km/h 98 % 2.5 in /  63.5 mm
20:24 2.8 °F /  -16.2 °C 3.0 °F /  -16.1 °C 1009.0 in /  34164.7 hPa SSE 5.8 mph /  9.3 km/h 5.8 mph /  9.3 km/h 98 % 2.8 in /  71.12 mm
20:30 2.8 °F /  -16.2 °C 3.0 °F /  -16.1 °C 1008.0 in /  34130.9 hPa SSE 5.8 mph /  9.3 km/h 5.8 mph /  9.3 km/h 98 % 2.8 in /  71.12 mm
20:35 2.9 °F /  -16.2 °C 3.0 °F /  -16.1 °C 1008.0 in /  34130.9 hPa SSE 5.8 mph /  9.3 km/h 5.8 mph /  9.3 km/h 98 % 3.0 in /  76.2 mm
20:40 2.9 °F /  -16.2 °C 3.0 °F /  -16.1 °C 1008.0 in /  34130.9 hPa SSE 5.8 mph /  9.3 km/h 5.8 mph /  9.3 km/h 98 % 3.3 in /  83.82 mm
20:45 2.9 °F /  -16.2 °C 3.0 °F /  -16.1 °C 1010.0 in /  34198.6 hPa SSE 5.8 mph /  9.3 km/h 5.8 mph /  9.3 km/h 98 % 3.0 in /  76.2 mm
20:50 3.0 °F /  -16.1 °C 3.0 °F /  -16.1 °C 1010.0 in /  34198.6 hPa SSE 5.8 mph /  9.3 km/h 5.8 mph /  9.3 km/h 98 % 3.8 in /  96.52 mm
20:55 3.0 °F /  -16.1 °C 3.0 °F /  -16.1 °C 1010.0 in /  34198.6 hPa SSE 5.8 mph /  9.3 km/h 5.8 mph /  9.3 km/h 98 % 3.8 in /  96.52 mm
21:00 3.0 °F /  -16.1 °C 3.0 °F /  -16.1 °C 1009.0 in /  34164.7 hPa SSE 5.8 mph /  9.3 km/h 5.8 mph /  9.3 km/h 98 % 4.1 in /  104.14 mm
21:10 3.0 °F /  -16.1 °C 3.0 °F /  -16.1 °C 1009.0 in /  34164.7 hPa South 7.9 mph /  12.7 km/h 7.9 mph /  12.7 km/h 98 % 4.3 in /  109.22 mm
21:15 3.0 °F /  -16.1 °C 3.0 °F /  -16.1 °C 1008.0 in /  34130.9 hPa South 7.9 mph /  12.7 km/h 7.9 mph /  12.7 km/h 98 % 4.3 in /  109.22 mm
21:20 3.1 °F /  -16.1 °C 3.0 °F /  -16.1 °C 1008.0 in /  34130.9 hPa South 7.9 mph /  12.7 km/h 7.9 mph /  12.7 km/h 98 % 4.1 in /  104.14 mm
21:25 3.1 °F /  -16.1 °C 3.0 °F /  -16.1 °C 1008.0 in /  34130.9 hPa South 7.9 mph /  12.7 km/h 7.9 mph /  12.7 km/h 98 % 4.3 in /  109.22 mm
21:30 3.1 °F /  -16.1 °C 3.0 °F /  -16.1 °C 1008.0 in /  34130.9 hPa South 7.9 mph /  12.7 km/h 7.9 mph /  12.7 km/h 98 % 4.6 in /  116.84 mm
21:35 3.1 °F /  -16.1 °C 3.0 °F /  -16.1 °C 1008.0 in /  34130.9 hPa South 7.9 mph /  12.7 km/h 7.9 mph /  12.7 km/h 98 % 4.3 in /  109.22 mm
21:40 3.1 °F /  -16.1 °C 3.0 °F /  -16.1 °C 1008.0 in /  34130.9 hPa South 7.9 mph /  12.7 km/h 7.9 mph /  12.7 km/h 98 % 4.3 in /  109.22 mm
21:45 3.1 °F /  -16.1 °C 3.0 °F /  -16.1 °C 1007.0 in /  34097 hPa South 7.9 mph /  12.7 km/h 7.9 mph /  12.7 km/h 98 % 4.3 in /  109.22 mm
21:50 3.2 °F /  -16 °C 3.0 °F /  -16.1 °C 1007.0 in /  34097 hPa South 7.9 mph /  12.7 km/h 7.9 mph /  12.7 km/h 98 % 4.3 in /  109.22 mm
21:55 3.2 °F /  -16 °C 3.0 °F /  -16.1 °C 1007.0 in /  34097 hPa South 7.9 mph /  12.7 km/h 7.9 mph /  12.7 km/h 98 % 4.3 in /  109.22 mm
22:01 3.2 °F /  -16 °C 3.0 °F /  -16.1 °C 1007.0 in /  34097 hPa South 7.9 mph /  12.7 km/h 7.9 mph /  12.7 km/h 98 % 4.1 in /  104.14 mm
22:06 3.3 °F /  -15.9 °C 3.0 °F /  -16.1 °C 1007.0 in /  34097 hPa South 7.9 mph /  12.7 km/h 7.9 mph /  12.7 km/h 98 % 3.6 in /  91.44 mm
22:11 3.3 °F /  -15.9 °C 3.0 °F /  -16.1 °C 1007.0 in /  34097 hPa South 7.9 mph /  12.7 km/h 7.9 mph /  12.7 km/h 98 % 3.0 in /  76.2 mm
22:16 3.3 °F /  -15.9 °C 3.0 °F /  -16.1 °C 1007.0 in /  34097 hPa South 7.9 mph /  12.7 km/h 7.9 mph /  12.7 km/h 98 % 2.8 in /  71.12 mm
22:21 3.4 °F /  -15.9 °C 3.0 °F /  -16.1 °C 1007.0 in /  34097 hPa South 7.9 mph /  12.7 km/h 7.9 mph /  12.7 km/h 98 % 2.5 in /  63.5 mm
22:36 3.5 °F /  -15.8 °C 4.0 °F /  -15.6 °C 1007.0 in /  34097 hPa South 7.9 mph /  12.7 km/h 7.9 mph /  12.7 km/h 98 % 1.5 in /  38.1 mm
22:46 3.6 °F /  -15.8 °C 4.0 °F /  -15.6 °C 1007.0 in /  34097 hPa South 7.9 mph /  12.7 km/h 7.9 mph /  12.7 km/h 98 % 1.0 in /  25.4 mm
22:51 3.6 °F /  -15.8 °C 4.0 °F /  -15.6 °C 1007.0 in /  34097 hPa South 7.9 mph /  12.7 km/h 7.9 mph /  12.7 km/h 98 % 1.0 in /  25.4 mm
22:56 3.7 °F /  -15.7 °C 4.0 °F /  -15.6 °C 1007.0 in /  34097 hPa South 7.9 mph /  12.7 km/h 7.9 mph /  12.7 km/h 98 % 1.0 in /  25.4 mm
23:01 3.7 °F /  -15.7 °C 4.0 °F /  -15.6 °C 1007.0 in /  34097 hPa SSW 2.1 mph /  3.4 km/h 2.1 mph /  3.4 km/h 98 % 0.8 in /  20.32 mm
23:11 3.8 °F /  -15.7 °C 4.0 °F /  -15.6 °C 1007.0 in /  34097 hPa SSW 2.1 mph /  3.4 km/h 2.1 mph /  3.4 km/h 98 % 0.8 in /  20.32 mm
23:16 3.9 °F /  -15.6 °C 4.0 °F /  -15.6 °C 1007.0 in /  34097 hPa SSW 2.1 mph /  3.4 km/h 2.1 mph /  3.4 km/h 98 % 0.8 in /  20.32 mm
23:21 4.1 °F /  -15.5 °C 4.0 °F /  -15.6 °C 1007.0 in /  34097 hPa SSW 2.1 mph /  3.4 km/h 2.1 mph /  3.4 km/h 98 % 0.8 in /  20.32 mm
23:46 4.5 °F /  -15.3 °C 5.0 °F /  -15 °C 1006.0 in /  34063.2 hPa SSW 2.1 mph /  3.4 km/h 2.1 mph /  3.4 km/h 98 % 0.5 in /  12.7 mm
Le Gheer Warneton
Courtoisie de Weather Underground - 2.25 mb

Mise a jour : 21/02/2018 11:55:11
Généré par Cumulus 1.9.4 (1099)